Time;durP1;ratioP1;P1;durP2;ratioP2;P2;SDS_P1;SDS_P2;PMS_P1;PMS_P2;Temp;Humidity;BMP_temperature;BMP_pressure;BME280_temperature;BME280_humidity;BME280_pressure;Samples;Min_cycle;Max_cycle;Signal;HPM_P1;HPM_P2
2023/05/13 00:00:11;;;;;;;3.97;3.25;;;16.40;84.80;;;;;;5033700;28;20448;-71
2023/05/13 00:02:36;;;;;;;9.57;4.18;;;16.30;85.90;;;;;;5033563;28;20036;-70
2023/05/13 00:05:02;;;;;;;8.38;4.22;;;16.30;86.30;;;;;;5034102;28;20022;-72
2023/05/13 00:07:28;;;;;;;9.32;4.38;;;16.40;86.00;;;;;;5033538;28;20030;-71
2023/05/13 00:09:54;;;;;;;8.02;3.83;;;16.30;86.00;;;;;;5033427;28;20048;-71
2023/05/13 00:12:19;;;;;;;8.10;3.75;;;16.20;86.80;;;;;;5015814;28;20033;-71
2023/05/13 00:14:45;;;;;;;5.68;4.03;;;16.20;86.40;;;;;;5033559;28;20397;-72
2023/05/13 00:17:11;;;;;;;8.88;4.20;;;16.30;86.40;;;;;;5033783;28;20029;-72
2023/05/13 00:19:37;;;;;;;9.80;4.53;;;16.20;86.80;;;;;;5033438;28;20160;-71
2023/05/13 00:22:03;;;;;;;8.20;3.65;;;16.10;87.00;;;;;;5015695;28;20349;-72
2023/05/13 00:24:28;;;;;;;7.03;3.83;;;16.00;87.50;;;;;;5033443;28;20388;-72
2023/05/13 00:26:54;;;;;;;7.72;4.40;;;16.00;87.70;;;;;;5033193;28;20022;-72
2023/05/13 00:29:20;;;;;;;10.40;4.93;;;15.90;88.70;;;;;;5033940;28;20040;-72
2023/05/13 00:31:45;;;;;;;6.32;3.92;;;15.70;88.80;;;;;;5032735;28;20049;-71
2023/05/13 00:34:11;;;;;;;6.75;4.78;;;15.80;87.90;;;;;;5015331;28;20041;-71
2023/05/13 00:36:37;;;;;;;7.65;4.25;;;15.70;88.10;;;;;;5033061;28;20055;-70
2023/05/13 00:39:03;;;;;;;5.85;3.88;;;15.50;88.80;;;;;;5015480;28;20049;-71
2023/05/13 00:41:29;;;;;;;7.18;4.15;;;15.50;89.50;;;;;;5033238;28;20388;-72
2023/05/13 00:43:58;;;;;;;12.70;4.22;;;15.40;90.20;;;;;;5015647;28;20548;-71
2023/05/13 00:46:25;;;;;;;9.30;3.63;;;15.30;90.60;;;;;;5032670;28;20104;-72
2023/05/13 00:48:51;;;;;;;8.70;3.92;;;15.20;90.60;;;;;;5015376;28;20119;-72
2023/05/13 00:51:17;;;;;;;8.60;5.28;;;15.20;90.40;;;;;;5033124;28;20066;-72
2023/05/13 00:53:42;;;;;;;12.15;4.38;;;15.20;90.40;;;;;;5032889;28;20097;-72
2023/05/13 00:56:08;;;;;;;7.47;3.83;;;15.10;90.40;;;;;;5033156;28;20546;-72
2023/05/13 00:58:34;;;;;;;6.65;3.58;;;15.10;90.30;;;;;;5032688;28;20356;-73
2023/05/13 01:01:18;;;;;;;8.77;3.80;;;15.00;90.40;;;;;;5032622;28;20021;-71
2023/05/13 01:03:43;;;;;;;9.20;4.38;;;15.00;90.60;;;;;;5032832;28;20045;-71
2023/05/13 01:07:06;;;;;;;11.38;4.50;;;15.00;90.70;;;;;;5032750;28;20026;-70
2023/05/13 01:09:54;;;;;;;5.50;3.90;;;14.80;91.10;;;;;;4952290;29;20031;-71
2023/05/13 01:12:25;;;;;;;8.10;4.55;;;14.90;90.80;;;;;;4942959;29;20086;-74
2023/05/13 01:15:03;;;;;;;6.97;3.75;;;14.80;91.30;;;;;;5015069;28;20080;-72
2023/05/13 01:17:44;;;;;;;6.50;3.78;;;14.60;91.10;;;;;;5033115;28;20017;-71
2023/05/13 01:20:11;;;;;;;7.38;3.90;;;14.60;91.30;;;;;;5015019;28;20472;-72
2023/05/13 01:22:36;;;;;;;8.77;4.07;;;14.50;91.60;;;;;;5032444;28;20120;-71
2023/05/13 01:25:02;;;;;;;13.40;4.93;;;14.60;91.70;;;;;;5032479;28;20045;-71
2023/05/13 01:27:28;;;;;;;11.63;4.22;;;14.60;91.90;;;;;;5032234;28;20025;-72
2023/05/13 01:29:54;;;;;;;7.55;4.63;;;14.60;92.30;;;;;;5032113;28;20056;-72
2023/05/13 01:32:22;;;;;;;10.68;4.32;;;14.50;92.40;;;;;;5032705;28;20030;-71
2023/05/13 01:34:51;;;;;;;7.43;3.92;;;14.50;92.60;;;;;;5031913;28;20040;-71
2023/05/13 01:37:17;;;;;;;15.35;4.50;;;14.50;92.70;;;;;;5012652;28;20087;-72
2023/05/13 01:39:43;;;;;;;7.13;4.30;;;14.50;92.90;;;;;;5012247;28;20042;-72
2023/05/13 01:42:08;;;;;;;8.98;4.65;;;14.40;93.20;;;;;;5012153;28;20067;-72
2023/05/13 01:44:34;;;;;;;9.27;4.15;;;14.30;93.30;;;;;;5012679;28;20068;-71
2023/05/13 01:47:00;;;;;;;10.85;4.80;;;14.40;93.20;;;;;;5012528;28;20476;-73
2023/05/13 01:49:26;;;;;;;7.07;4.30;;;14.30;93.70;;;;;;5012276;28;20448;-72
2023/05/13 01:51:51;;;;;;;9.50;4.88;;;14.30;93.80;;;;;;5012024;28;20030;-72
2023/05/13 01:54:17;;;;;;;8.13;4.75;;;14.20;94.00;;;;;;5011198;28;20156;-71
2023/05/13 01:56:42;;;;;;;7.25;4.45;;;14.20;93.90;;;;;;5012413;28;20045;-72
2023/05/13 01:59:09;;;;;;;10.85;4.30;;;14.20;93.90;;;;;;5012508;28;20368;-71
2023/05/13 02:01:35;;;;;;;9.63;4.20;;;14.20;94.10;;;;;;5011867;28;20599;-71
2023/05/13 02:04:01;;;;;;;8.15;4.85;;;14.10;94.20;;;;;;5010897;28;20121;-73
2023/05/13 02:06:27;;;;;;;7.18;4.45;;;14.10;94.10;;;;;;5004819;28;20022;-72
2023/05/13 02:08:53;;;;;;;6.90;4.72;;;14.20;94.40;;;;;;4991449;28;20444;-72
2023/05/13 02:11:19;;;;;;;6.22;4.25;;;14.20;94.50;;;;;;4992610;28;20026;-74
2023/05/13 02:13:45;;;;;;;9.70;4.65;;;14.20;94.60;;;;;;4992414;28;20022;-72
2023/05/13 02:16:16;;;;;;;11.05;4.82;;;14.20;94.70;;;;;;4992415;28;20033;-72
2023/05/13 02:18:42;;;;;;;9.43;4.88;;;14.20;94.60;;;;;;4991968;28;20368;-71
2023/05/13 02:21:08;;;;;;;7.50;5.15;;;14.10;94.80;;;;;;4991806;28;20524;-72
2023/05/13 02:23:34;;;;;;;10.40;5.05;;;14.00;95.20;;;;;;4991321;28;20029;-71
2023/05/13 02:25:59;;;;;;;6.78;5.00;;;14.00;95.10;;;;;;4991974;28;20036;-72
2023/05/13 02:28:25;;;;;;;8.13;4.68;;;13.80;95.40;;;;;;4991803;28;20036;-71
2023/05/13 02:30:51;;;;;;;7.43;4.63;;;13.80;95.70;;;;;;4991581;28;20680;-72
2023/05/13 02:33:17;;;;;;;8.02;4.93;;;13.90;95.60;;;;;;4992071;28;20041;-73
2023/05/13 02:35:42;;;;;;;12.15;4.85;;;13.90;95.60;;;;;;4990996;28;20117;-72
2023/05/13 02:38:09;;;;;;;10.45;5.10;;;13.80;95.80;;;;;;4991269;28;20022;-74
2023/05/13 02:40:35;;;;;;;8.15;4.88;;;13.90;95.80;;;;;;4991918;28;20464;-72
2023/05/13 02:43:00;;;;;;;7.82;4.80;;;13.70;96.00;;;;;;4991868;28;20038;-72
2023/05/13 02:45:26;;;;;;;7.22;5.00;;;13.70;96.00;;;;;;4991790;28;20058;-72
2023/05/13 02:47:52;;;;;;;8.40;5.47;;;13.70;95.80;;;;;;4991551;28;20030;-72
2023/05/13 02:50:18;;;;;;;7.70;4.57;;;13.70;96.00;;;;;;4992195;28;20034;-73
2023/05/13 02:52:43;;;;;;;9.40;5.28;;;13.60;96.30;;;;;;4991663;28;20040;-72
2023/05/13 02:55:09;;;;;;;9.07;4.93;;;13.50;96.50;;;;;;4991537;28;20034;-72
2023/05/13 02:57:36;;;;;;;10.88;4.90;;;13.50;96.50;;;;;;4991482;28;20065;-73
2023/05/13 03:00:03;;;;;;;9.55;5.65;;;13.60;96.50;;;;;;4991362;28;20414;-73
2023/05/13 03:02:32;;;;;;;9.38;5.20;;;13.60;96.50;;;;;;4992078;28;20445;-72
2023/05/13 03:04:58;;;;;;;7.10;4.90;;;13.50;96.60;;;;;;4991399;28;20050;-73
2023/05/13 03:07:24;;;;;;;11.98;5.60;;;13.50;96.70;;;;;;4991450;28;20026;-73
2023/05/13 03:09:50;;;;;;;10.77;5.30;;;13.50;96.80;;;;;;4991199;28;20748;-72
2023/05/13 03:12:16;;;;;;;7.78;4.80;;;13.50;96.80;;;;;;4990799;28;20105;-72
2023/05/13 03:14:43;;;;;;;9.25;5.25;;;13.50;96.80;;;;;;4991180;28;20076;-72
2023/05/13 03:17:10;;;;;;;20.45;5.57;;;13.50;97.00;;;;;;4991631;28;20030;-72
2023/05/13 03:19:36;;;;;;;8.52;5.13;;;13.50;97.00;;;;;;4991408;28;20495;-73
2023/05/13 03:22:04;;;;;;;7.80;5.70;;;13.50;97.20;;;;;;4991253;28;20043;-73
2023/05/13 03:24:29;;;;;;;11.40;5.50;;;13.40;97.30;;;;;;4989982;28;20756;-72
2023/05/13 03:26:56;;;;;;;12.57;6.13;;;13.40;97.20;;;;;;4991128;28;20560;-72
2023/05/13 03:29:21;;;;;;;12.13;5.75;;;13.50;97.20;;;;;;4990528;28;20089;-73
2023/05/13 03:31:47;;;;;;;7.45;5.20;;;13.50;96.90;;;;;;4991203;28;20404;-72
2023/05/13 03:34:13;;;;;;;10.13;5.20;;;13.50;97.20;;;;;;4990993;28;20058;-72
2023/05/13 03:36:39;;;;;;;10.52;5.40;;;13.50;96.90;;;;;;4990077;28;20057;-71
2023/05/13 03:39:05;;;;;;;8.57;5.07;;;13.60;96.70;;;;;;4989831;28;20042;-72
2023/05/13 03:41:30;;;;;;;8.40;4.80;;;13.60;96.90;;;;;;4991452;28;20516;-72
2023/05/13 03:43:56;;;;;;;10.38;5.20;;;13.70;97.00;;;;;;4990930;28;20109;-72
2023/05/13 03:46:22;;;;;;;10.82;5.72;;;13.70;97.10;;;;;;4991021;28;20424;-72
2023/05/13 03:48:48;;;;;;;14.43;5.30;;;13.70;97.10;;;;;;4990924;28;20038;-72
2023/05/13 03:51:14;;;;;;;8.25;5.25;;;13.60;97.30;;;;;;4990773;28;20084;-72
2023/05/13 03:53:40;;;;;;;14.10;5.72;;;13.70;97.20;;;;;;4990683;28;20423;-72
2023/05/13 03:56:06;;;;;;;13.20;7.25;;;13.60;97.20;;;;;;5010879;28;20080;-72
2023/05/13 03:58:32;;;;;;;9.23;5.80;;;13.60;97.20;;;;;;5009464;28;20026;-72
2023/05/13 04:00:57;;;;;;;9.10;5.15;;;13.70;97.20;;;;;;5010416;28;20484;-73
2023/05/13 04:03:23;;;;;;;8.80;5.18;;;13.60;97.20;;;;;;5010139;28;20038;-73
2023/05/13 04:05:51;;;;;;;7.30;4.78;;;13.60;97.00;;;;;;5010194;28;20096;-71
2023/05/13 04:08:16;;;;;;;13.73;5.45;;;13.50;97.50;;;;;;5010945;28;20018;-73
2023/05/13 04:10:42;;;;;;;9.23;5.30;;;13.40;97.50;;;;;;5010077;28;20034;-73
2023/05/13 04:13:08;;;;;;;10.43;5.78;;;13.50;97.20;;;;;;5009037;28;20091;-73
2023/05/13 04:15:34;;;;;;;10.40;5.25;;;13.40;97.30;;;;;;5010013;28;20087;-72
2023/05/13 04:17:59;;;;;;;8.05;5.18;;;13.40;97.20;;;;;;5009847;28;20455;-72
2023/05/13 04:20:25;;;;;;;11.93;5.03;;;13.50;97.20;;;;;;5010438;28;20443;-71
2023/05/13 04:22:51;;;;;;;7.75;5.15;;;13.50;97.30;;;;;;5010262;28;20045;-73
2023/05/13 04:25:17;;;;;;;7.97;5.13;;;13.60;97.10;;;;;;5010241;28;20419;-72
2023/05/13 04:27:42;;;;;;;10.13;5.57;;;13.50;97.00;;;;;;5009871;28;20503;-71
2023/05/13 04:30:09;;;;;;;15.20;5.10;;;13.50;97.20;;;;;;5009723;28;20046;-72
2023/05/13 04:32:35;;;;;;;11.25;5.00;;;13.50;97.60;;;;;;5012782;28;20176;-72
2023/05/13 04:35:00;;;;;;;18.20;5.40;;;13.50;97.50;;;;;;5012440;28;20038;-72
2023/05/13 04:37:26;;;;;;;12.07;4.90;;;13.60;97.90;;;;;;5013146;28;20041;-72
2023/05/13 04:39:52;;;;;;;8.95;6.03;;;13.60;97.70;;;;;;5013360;28;20038;-72
2023/05/13 04:42:17;;;;;;;7.97;4.65;;;13.60;97.20;;;;;;5013556;28;20033;-72
2023/05/13 04:44:43;;;;;;;10.55;4.82;;;13.80;96.00;;;;;;5013287;28;20085;-71
2023/05/13 04:47:09;;;;;;;9.30;4.90;;;13.90;95.60;;;;;;5013797;28;20054;-72
2023/05/13 04:49:35;;;;;;;11.48;5.70;;;13.90;96.00;;;;;;5013178;28;20423;-71
2023/05/13 04:52:02;;;;;;;14.23;5.38;;;14.00;95.30;;;;;;5013774;28;20378;-71
2023/05/13 04:54:28;;;;;;;11.53;4.73;;;14.00;95.20;;;;;;5013200;28;20120;-70
2023/05/13 04:56:53;;;;;;;6.90;4.53;;;14.00;94.80;;;;;;5012713;28;20100;-70
2023/05/13 04:59:19;;;;;;;10.05;5.03;;;14.10;94.60;;;;;;5012374;28;20018;-73
2023/05/13 05:01:44;;;;;;;7.18;4.57;;;14.10;94.40;;;;;;5013083;28;20042;-72
2023/05/13 05:04:11;;;;;;;8.88;4.65;;;14.10;94.30;;;;;;5012912;28;20042;-71
2023/05/13 05:06:37;;;;;;;10.70;4.93;;;14.20;94.20;;;;;;5011681;28;20041;-71
2023/05/13 05:09:03;;;;;;;10.15;5.40;;;14.20;94.20;;;;;;5012651;28;20026;-72
2023/05/13 05:11:29;;;;;;;8.02;4.75;;;14.30;94.30;;;;;;5013228;28;20331;-72
2023/05/13 05:13:55;;;;;;;13.15;5.40;;;14.40;94.40;;;;;;5012729;28;20129;-71
2023/05/13 05:16:21;;;;;;;9.05;5.20;;;14.40;94.20;;;;;;5012754;28;20066;-72
2023/05/13 05:18:46;;;;;;;7.55;4.40;;;14.40;94.20;;;;;;5012633;28;20121;-72
2023/05/13 05:21:12;;;;;;;9.85;4.90;;;14.40;94.10;;;;;;5012730;28;20030;-71
2023/05/13 05:23:38;;;;;;;6.60;4.53;;;14.50;94.10;;;;;;5012646;28;20030;-71
2023/05/13 05:26:04;;;;;;;6.93;4.57;;;14.60;93.90;;;;;;5013180;28;20038;-72
2023/05/13 05:28:30;;;;;;;16.13;5.13;;;14.60;93.80;;;;;;5012778;28;20033;-72
2023/05/13 05:30:56;;;;;;;7.80;4.53;;;14.60;93.80;;;;;;5011310;28;20439;-72
2023/05/13 05:33:22;;;;;;;11.55;4.65;;;14.70;93.90;;;;;;5012239;28;20026;-71
2023/05/13 05:35:48;;;;;;;7.57;3.97;;;14.70;93.90;;;;;;5012495;28;20053;-71
2023/05/13 05:38:14;;;;;;;12.63;4.22;;;14.80;93.70;;;;;;5013218;28;20440;-71
2023/05/13 05:40:42;;;;;;;8.00;4.60;;;14.80;93.60;;;;;;5011406;28;20137;-71
2023/05/13 05:43:09;;;;;;;13.55;4.43;;;14.80;93.90;;;;;;5011397;28;20178;-71
2023/05/13 05:45:36;;;;;;;10.52;4.70;;;14.90;93.50;;;;;;5012290;28;20107;-72
2023/05/13 05:48:02;;;;;;;6.25;3.65;;;14.90;93.40;;;;;;5012000;28;20176;-70
2023/05/13 05:50:28;;;;;;;4.47;3.30;;;15.00;93.20;;;;;;5012670;28;20129;-72
2023/05/13 05:52:54;;;;;;;10.05;4.30;;;15.10;93.00;;;;;;5011101;28;20026;-71
2023/05/13 05:55:20;;;;;;;6.72;4.00;;;15.30;92.90;;;;;;5012344;28;20026;-71
2023/05/13 05:57:46;;;;;;;11.27;4.35;;;15.60;92.70;;;;;;5011853;28;20464;-71
2023/05/13 06:00:12;;;;;;;9.13;3.90;;;15.80;92.60;;;;;;5011917;28;20057;-71
2023/05/13 06:02:38;;;;;;;9.70;3.95;;;16.00;92.00;;;;;;5012018;28;20029;-72
2023/05/13 06:05:05;;;;;;;7.18;3.50;;;16.20;91.90;;;;;;5012202;28;20028;-73
2023/05/13 06:07:30;;;;;;;8.07;3.92;;;16.30;91.50;;;;;;5010715;28;20033;-72
2023/05/13 06:09:56;;;;;;;7.72;3.70;;;16.50;91.20;;;;;;5011806;28;20038;-74
2023/05/13 06:12:22;;;;;;;6.50;3.83;;;16.70;90.80;;;;;;5012011;28;20026;-74
2023/05/13 06:14:48;;;;;;;9.13;3.90;;;16.90;90.50;;;;;;5011728;28;20026;-74
2023/05/13 06:17:14;;;;;;;4.70;3.33;;;17.20;90.40;;;;;;5012196;28;20014;-73
2023/05/13 06:19:43;;;;;;;5.45;3.42;;;17.50;89.70;;;;;;5012304;28;20070;-74
2023/05/13 06:22:09;;;;;;;7.97;3.58;;;17.70;89.70;;;;;;5011503;28;20034;-74
2023/05/13 06:24:35;;;;;;;5.13;3.38;;;18.00;88.80;;;;;;5010576;28;20038;-73
2023/05/13 06:27:01;;;;;;;7.40;3.70;;;18.30;87.90;;;;;;5011554;28;20113;-73
2023/05/13 06:29:27;;;;;;;8.10;3.80;;;18.60;87.90;;;;;;5012159;28;20405;-73
2023/05/13 06:31:53;;;;;;;6.13;3.47;;;18.80;86.70;;;;;;5011390;28;20045;-72
2023/05/13 06:34:19;;;;;;;5.55;3.80;;;18.90;85.70;;;;;;5011730;28;20472;-72
2023/05/13 06:36:45;;;;;;;10.90;4.15;;;19.00;84.90;;;;;;5011510;28;20248;-73
2023/05/13 06:39:11;;;;;;;9.82;3.80;;;19.00;84.30;;;;;;5010361;28;20475;-74
2023/05/13 06:41:38;;;;;;;6.80;3.50;;;19.20;84.60;;;;;;5011200;28;20439;-75
2023/05/13 06:44:05;;;;;;;4.60;3.35;;;19.30;84.60;;;;;;5012009;28;20026;-75
2023/05/13 06:46:32;;;;;;;5.00;3.50;;;19.60;83.70;;;;;;5011421;28;20034;-73
2023/05/13 06:48:58;;;;;;;6.75;3.40;;;19.80;83.60;;;;;;5011117;28;20034;-70
2023/05/13 06:51:27;;;;;;;14.13;4.03;;;20.00;82.30;;;;;;5011212;28;20107;-71
2023/05/13 06:53:54;;;;;;;7.68;3.85;;;20.10;80.40;;;;;;5009941;28;20022;-73
2023/05/13 06:56:23;;;;;;;7.57;3.67;;;20.30;81.60;;;;;;5011332;28;20038;-74
2023/05/13 06:58:49;;;;;;;7.43;3.60;;;20.40;81.60;;;;;;5010142;28;20117;-75
2023/05/13 07:01:16;;;;;;;4.78;3.53;;;20.40;81.20;;;;;;5011092;28;20030;-72
2023/05/13 07:03:42;;;;;;;10.10;3.33;;;20.70;80.40;;;;;;5010954;28;20421;-73
2023/05/13 07:06:08;;;;;;;7.00;3.67;;;20.70;80.30;;;;;;5010934;28;20022;-73
2023/05/13 07:08:34;;;;;;;10.60;3.92;;;20.60;79.70;;;;;;5011361;28;20053;-75
2023/05/13 07:10:59;;;;;;;5.90;3.63;;;20.60;79.90;;;;;;5010037;28;20041;-74
2023/05/13 07:13:25;;;;;;;6.57;3.58;;;20.50;79.40;;;;;;5011021;28;20029;-73
2023/05/13 07:15:51;;;;;;;5.82;3.20;;;20.60;79.60;;;;;;5010985;28;20038;-73
2023/05/13 07:18:17;;;;;;;9.10;3.38;;;20.50;79.50;;;;;;5010980;28;20140;-74
2023/05/13 07:20:43;;;;;;;11.13;3.50;;;20.50;79.40;;;;;;5010974;28;20014;-75
2023/05/13 07:23:09;;;;;;;7.03;3.15;;;20.60;79.40;;;;;;5011303;28;20026;-73
2023/05/13 07:25:35;;;;;;;5.28;3.72;;;20.60;79.20;;;;;;4994008;28;20026;-74
2023/05/13 07:28:01;;;;;;;9.00;3.92;;;20.70;80.00;;;;;;5011203;28;20030;-75
2023/05/13 07:30:27;;;;;;;10.00;4.50;;;20.70;79.60;;;;;;5010828;28;20423;-72
2023/05/13 07:32:53;;;;;;;9.88;3.97;;;20.70;80.00;;;;;;5011101;28;20448;-70
2023/05/13 07:35:18;;;;;;;6.70;3.70;;;20.80;79.10;;;;;;4993897;28;20149;-73
2023/05/13 07:37:45;;;;;;;8.02;3.60;;;20.90;79.40;;;;;;5010505;28;20033;-76
2023/05/13 07:40:12;;;;;;;7.85;3.40;;;20.90;79.30;;;;;;5010655;28;20074;-71
2023/05/13 07:42:39;;;;;;;7.70;3.67;;;20.90;78.90;;;;;;4993656;28;20465;-76
2023/05/13 07:45:06;;;;;;;8.98;3.47;;;21.10;79.60;;;;;;5010591;28;20049;-76
2023/05/13 07:47:32;;;;;;;10.73;3.67;;;21.20;78.20;;;;;;5009923;28;20053;-77
2023/05/13 07:49:58;;;;;;;6.20;3.30;;;21.30;78.30;;;;;;5010877;28;20034;-76
2023/05/13 07:52:24;;;;;;;11.48;3.65;;;21.50;78.30;;;;;;5010701;28;20026;-76
2023/05/13 07:54:50;;;;;;;10.60;4.05;;;21.60;78.00;;;;;;5010674;28;20109;-76
2023/05/13 07:57:16;;;;;;;11.57;3.63;;;21.80;77.50;;;;;;5010468;28;20113;-76
2023/05/13 07:59:41;;;;;;;10.77;4.18;;;22.10;77.30;;;;;;4992952;28;20026;-76
2023/05/13 08:02:07;;;;;;;8.80;3.63;;;22.20;76.70;;;;;;5016725;28;20018;-77
2023/05/13 08:04:33;;;;;;;5.65;3.30;;;22.30;76.20;;;;;;4992995;28;20461;-77
2023/05/13 08:07:00;;;;;;;5.45;3.72;;;22.80;76.20;;;;;;5012041;28;20367;-77
2023/05/13 08:09:26;;;;;;;10.70;4.20;;;23.10;75.30;;;;;;4997140;28;20467;-78
2023/05/13 08:11:53;;;;;;;9.00;4.20;;;23.40;74.00;;;;;;5014255;28;20026;-78
2023/05/13 08:14:19;;;;;;;6.97;4.03;;;23.80;72.80;;;;;;5014983;28;20040;-77
2023/05/13 08:16:44;;;;;;;8.10;3.53;;;23.90;71.50;;;;;;5014050;28;20030;-71
2023/05/13 08:19:12;;;;;;;5.18;3.33;;;24.60;73.30;;;;;;5013770;28;20445;-70
2023/05/13 08:21:38;;;;;;;8.43;3.55;;;25.60;70.80;;;;;;4996442;28;20049;-71
2023/05/13 08:24:05;;;;;;;13.23;4.07;;;26.20;69.10;;;;;;5013630;28;20395;-71
2023/05/13 08:26:31;;;;;;;9.32;3.58;;;26.90;67.00;;;;;;5014549;28;20448;-71
2023/05/13 08:28:57;;;;;;;5.63;3.75;;;27.50;64.90;;;;;;5013921;28;20092;-71
2023/05/13 08:31:24;;;;;;;10.25;3.80;;;28.00;62.70;;;;;;5013424;28;20419;-70
2023/05/13 08:33:52;;;;;;;5.38;3.45;;;28.10;61.20;;;;;;5013653;28;20420;-70
2023/05/13 08:36:18;;;;;;;8.73;3.78;;;29.00;61.40;;;;;;5012421;28;20033;-71
2023/05/13 08:38:44;;;;;;;10.75;3.92;;;29.70;59.90;;;;;;5013605;28;20018;-71
2023/05/13 08:41:13;;;;;;;8.15;3.72;;;30.30;57.60;;;;;;5014011;28;20054;-71
2023/05/13 08:43:41;;;;;;;11.25;3.50;;;30.70;56.20;;;;;;5013220;28;20041;-71
2023/05/13 08:46:11;;;;;;;9.05;3.33;;;31.30;55.90;;;;;;5013201;28;20444;-71
2023/05/13 08:48:40;;;;;;;7.35;3.50;;;31.50;54.10;;;;;;5013468;28;20283;-71
2023/05/13 08:51:07;;;;;;;11.02;3.20;;;31.50;53.20;;;;;;5012253;28;20034;-73
2023/05/13 08:53:38;;;;;;;9.73;3.97;;;31.90;52.60;;;;;;5014024;28;20078;-71
2023/05/13 08:56:08;;;;;;;7.40;3.97;;;32.10;52.10;;;;;;5013772;28;20413;-71
2023/05/13 08:58:34;;;;;;;8.40;3.50;;;32.20;51.00;;;;;;5012333;28;20519;-71
2023/05/13 09:01:01;;;;;;;13.18;3.95;;;32.20;51.10;;;;;;5013767;28;20046;-70
2023/05/13 09:03:27;;;;;;;7.00;3.67;;;32.30;49.80;;;;;;5012354;28;20053;-72
2023/05/13 09:05:53;;;;;;;6.32;3.72;;;33.20;48.70;;;;;;5012891;28;20073;-71
2023/05/13 09:08:18;;;;;;;7.60;3.85;;;33.50;48.00;;;;;;4996075;28;20034;-71
2023/05/13 09:10:45;;;;;;;8.35;3.80;;;33.70;47.40;;;;;;5012771;28;20109;-71
2023/05/13 09:13:11;;;;;;;7.07;3.67;;;34.00;47.00;;;;;;5012652;28;20026;-69
2023/05/13 09:15:41;;;;;;;8.67;3.53;;;34.00;46.30;;;;;;5012544;28;20034;-71
2023/05/13 09:18:07;;;;;;;10.68;4.20;;;34.00;44.80;;;;;;5012517;28;20037;-70
2023/05/13 09:20:34;;;;;;;6.50;3.20;;;34.30;45.60;;;;;;5013225;28;20411;-71
2023/05/13 09:23:02;;;;;;;10.10;4.03;;;34.50;45.40;;;;;;5012681;28;20045;-72
2023/05/13 09:25:29;;;;;;;7.35;3.60;;;34.40;44.80;;;;;;5012623;28;20040;-71
2023/05/13 09:27:57;;;;;;;4.95;3.60;;;34.10;43.90;;;;;;4995793;28;20025;-71
2023/05/13 09:30:28;;;;;;;8.52;3.70;;;33.50;43.80;;;;;;5007994;28;20085;-71
2023/05/13 09:33:03;;;;;;;8.77;3.50;;;33.80;43.40;;;;;;4993189;28;20034;-71
2023/05/13 09:35:30;;;;;;;9.75;3.42;;;33.80;43.20;;;;;;4993553;28;20042;-71
2023/05/13 09:37:56;;;;;;;10.30;3.47;;;33.50;43.10;;;;;;4993445;28;20325;-71
2023/05/13 09:40:22;;;;;;;14.65;3.70;;;33.40;42.90;;;;;;4993134;28;20242;-71
2023/05/13 09:42:48;;;;;;;8.00;3.70;;;33.30;42.80;;;;;;4992710;28;20044;-70
2023/05/13 09:45:15;;;;;;;9.27;3.38;;;33.00;42.90;;;;;;4992771;28;20460;-71
2023/05/13 09:47:41;;;;;;;6.72;3.28;;;32.70;42.90;;;;;;4993343;28;20062;-71
2023/05/13 09:50:09;;;;;;;6.75;3.78;;;32.30;43.10;;;;;;4993635;28;20030;-71
2023/05/13 09:52:36;;;;;;;7.00;3.15;;;32.10;43.10;;;;;;4992692;28;20031;-71
2023/05/13 09:55:03;;;;;;;9.25;4.35;;;31.90;43.20;;;;;;4992881;28;20126;-71
2023/05/13 09:57:30;;;;;;;4.53;3.22;;;31.80;43.80;;;;;;4993083;28;20456;-70
2023/05/13 10:00:00;;;;;;;4.82;3.10;;;31.40;43.90;;;;;;4993102;28;20088;-71
2023/05/13 10:02:27;;;;;;;8.43;3.88;;;30.80;44.60;;;;;;4993980;28;20435;-71
2023/05/13 10:04:57;;;;;;;12.82;4.30;;;30.40;44.80;;;;;;5012094;28;20065;-72
2023/05/13 10:07:24;;;;;;;10.25;5.03;;;29.90;45.30;;;;;;4992860;28;20088;-71
2023/05/13 10:10:09;;;;;;;9.05;3.85;;;29.60;46.10;;;;;;4993176;28;20443;-71
2023/05/13 10:12:37;;;;;;;7.00;3.65;;;29.30;46.30;;;;;;4993701;28;20030;-70
2023/05/13 10:15:04;;;;;;;5.07;3.30;;;29.10;46.30;;;;;;5008555;28;20027;-70
2023/05/13 10:17:31;;;;;;;12.43;4.00;;;28.20;45.70;;;;;;4993315;28;20031;-71
2023/05/13 10:19:57;;;;;;;11.90;3.17;;;27.70;47.20;;;;;;4993393;28;20053;-71
2023/05/13 10:22:28;;;;;;;16.10;4.20;;;27.60;47.80;;;;;;4994720;28;20114;-71
2023/05/13 10:24:58;;;;;;;8.25;4.05;;;27.70;48.20;;;;;;5009000;28;20062;-71
2023/05/13 10:27:33;;;;;;;5.82;3.50;;;27.60;48.20;;;;;;5009297;28;20023;-70
2023/05/13 10:30:00;;;;;;;8.90;4.15;;;27.60;48.40;;;;;;4997359;28;20038;-72
2023/05/13 10:32:28;;;;;;;7.50;3.60;;;27.30;48.30;;;;;;5013576;28;20026;-70
2023/05/13 10:35:11;;;;;;;5.68;3.90;;;27.00;48.80;;;;;;5015184;28;20038;-71
2023/05/13 10:37:49;;;;;;;7.25;3.60;;;27.00;49.00;;;;;;4993986;28;20111;-70
2023/05/13 10:40:40;;;;;;;6.15;3.28;;;27.00;49.20;;;;;;4993702;28;20344;-71
2023/05/13 10:43:24;;;;;;;8.32;3.28;;;26.90;49.60;;;;;;5010400;28;20060;-71
2023/05/13 10:45:57;;;;;;;7.10;3.75;;;27.00;49.50;;;;;;5011752;28;20038;-70
2023/05/13 10:48:23;;;;;;;10.20;3.55;;;26.90;49.30;;;;;;5011220;28;20456;-70
2023/05/13 10:50:59;;;;;;;10.18;3.58;;;26.70;49.80;;;;;;5011055;28;20030;-71
2023/05/13 10:53:29;;;;;;;8.45;3.40;;;26.70;50.20;;;;;;4994135;28;20471;-71
2023/05/13 10:55:56;;;;;;;8.23;3.50;;;26.70;50.30;;;;;;5010939;28;20026;-70
2023/05/13 10:58:32;;;;;;;4.68;3.20;;;26.70;50.10;;;;;;5009436;28;20030;-70
2023/05/13 11:01:28;;;;;;;9.40;3.60;;;26.60;49.00;;;;;;5010801;28;20026;-70
2023/05/13 11:03:55;;;;;;;17.48;9.82;;;26.60;49.30;;;;;;5010917;28;20124;-70
2023/05/13 11:06:23;;;;;;;7.97;3.33;;;26.60;49.30;;;;;;5010725;28;20033;-70
2023/05/13 11:08:52;;;;;;;7.45;3.63;;;26.60;49.30;;;;;;5010646;28;20428;-70
2023/05/13 11:11:18;;;;;;;7.53;3.17;;;26.50;48.40;;;;;;5011117;28;20030;-71
2023/05/13 11:13:43;;;;;;;4.68;3.10;;;26.50;48.40;;;;;;4993364;28;20059;-71
2023/05/13 11:16:12;;;;;;;12.90;3.45;;;26.30;48.70;;;;;;4993162;28;20033;-70
2023/05/13 11:18:38;;;;;;;7.85;3.83;;;26.40;48.30;;;;;;5010679;28;20041;-70
2023/05/13 11:21:05;;;;;;;8.25;2.97;;;26.20;48.80;;;;;;5010894;28;20022;-70
2023/05/13 11:23:33;;;;;;;11.73;3.17;;;26.00;48.10;;;;;;5011189;28;20140;-70
2023/05/13 11:26:11;;;;;;;9.35;3.00;;;25.90;48.70;;;;;;5012007;28;20121;-70
2023/05/13 11:29:02;;;;;;;8.70;3.00;;;25.90;48.20;;;;;;5009535;28;20088;-71
2023/05/13 11:31:45;;;;;;;4.72;2.88;;;25.70;48.40;;;;;;4989706;28;20045;-70
2023/05/13 11:34:20;;;;;;;7.70;2.78;;;26.00;47.70;;;;;;4990696;28;20022;-70
2023/05/13 11:37:11;;;;;;;6.43;3.30;;;26.00;47.30;;;;;;4990591;28;20412;-68
2023/05/13 11:39:40;;;;;;;11.65;5.13;;;25.80;48.00;;;;;;4990415;28;20035;-70
2023/05/13 11:42:10;;;;;;;5.40;3.03;;;25.70;48.10;;;;;;4993911;28;20435;-70
2023/05/13 11:44:43;;;;;;;8.93;3.20;;;25.60;48.10;;;;;;4995245;28;20037;-70
2023/05/13 11:47:08;;;;;;;5.10;2.55;;;25.40;48.20;;;;;;4994862;28;20461;-71
2023/05/13 11:49:39;;;;;;;6.60;2.50;;;25.40;48.50;;;;;;4994908;28;20042;-71
2023/05/13 11:52:18;;;;;;;9.90;2.85;;;25.20;47.00;;;;;;4994647;28;20026;-70
2023/05/13 11:54:49;;;;;;;6.32;2.15;;;25.20;46.80;;;;;;4994540;28;20041;-70
2023/05/13 11:57:27;;;;;;;8.30;1.92;;;25.00;46.80;;;;;;4994814;28;20081;-69
2023/05/13 12:00:05;;;;;;;7.55;2.55;;;24.90;45.80;;;;;;4994496;28;20029;-70
2023/05/13 12:02:37;;;;;;;3.30;2.50;;;24.80;45.70;;;;;;4994170;28;20038;-69
2023/05/13 12:05:04;;;;;;;5.93;2.30;;;24.80;45.60;;;;;;5010084;28;20048;-71
2023/05/13 12:07:31;;;;;;;3.47;2.60;;;24.90;46.00;;;;;;4990061;28;20115;-69
2023/05/13 12:09:59;;;;;;;7.40;2.38;;;25.00;45.70;;;;;;4986356;28;20101;-69
2023/05/13 12:12:25;;;;;;;;;;;25.10;45.90;;;;;;4994835;28;20456;-69
2023/05/13 12:14:52;;;;;;;7.60;3.10;;;25.00;46.30;;;;;;4994332;28;19910;-70
2023/05/13 12:17:19;;;;;;;11.63;3.00;;;25.00;46.20;;;;;;4995726;28;20437;-71
2023/05/13 12:20:07;;;;;;;6.22;2.67;;;25.10;46.00;;;;;;4994146;28;20065;-71
2023/05/13 12:22:33;;;;;;;4.18;2.50;;;25.10;46.00;;;;;;4993822;28;20115;-70
2023/05/13 12:25:01;;;;;;;3.88;2.63;;;25.10;45.80;;;;;;4994265;28;20053;-69
2023/05/13 12:27:27;;;;;;;6.78;2.63;;;25.00;46.30;;;;;;4994508;28;20050;-70
2023/05/13 12:29:56;;;;;;;12.98;2.92;;;24.90;46.30;;;;;;4996726;28;20069;-70
2023/05/13 12:32:23;;;;;;;4.70;2.40;;;24.80;47.00;;;;;;5014144;28;20092;-68
2023/05/13 12:34:50;;;;;;;5.38;2.63;;;24.90;46.20;;;;;;5013554;28;20442;-70
2023/05/13 12:37:16;;;;;;;9.32;2.80;;;24.90;46.30;;;;;;5012349;28;20464;-69
2023/05/13 12:39:43;;;;;;;8.85;2.83;;;24.90;46.10;;;;;;4995712;28;20261;-70
2023/05/13 12:42:16;;;;;;;7.20;3.10;;;24.90;46.90;;;;;;5013220;28;20045;-69
2023/05/13 12:44:43;;;;;;;6.63;2.70;;;24.80;46.60;;;;;;5011939;28;20034;-71